Terminal Aerodrome Forecast
Issued by NWS Greer, SC

Home | Current Version | Previous Version | Text Only | Print | Product List | Glossary On
Versions: 1 2 3 4 5 6 7 8 9 10 11 12 13 14 15 16 17 18 19 20 21 22 23 24 25 26 27 28 29 30 31 32 33 34 35 36 37 38 39 40 41
000
FTUS42 KGSP 211121
TAFAVL
TAF
KAVL 211121Z 2112/2212 00000KT 6SM BR OVC010
      TEMPO 2112/2114 3SM BR OVC009
     FM211400 16003KT P6SM OVC016
     FM212000 14004KT P6SM BKN035
     FM220100 11005KT P6SM OVC019
     FM220400 11004KT P6SM -RA OVC007
     FM220900 13004KT P6SM -RA OVC003=

USA.gov is the U.S. government's official web portal to all federal, state and local government web resources and services.